sensor_id;sensor_type;location;lat;lon;timestamp;temperature;humidity
48454;DHT22;34261;55.678;12.464;2022-07-29T00:01:19;14.90;99.90
48454;DHT22;34261;55.678;12.464;2022-07-29T00:03:44;14.90;99.90
48454;DHT22;34261;55.678;12.464;2022-07-29T00:06:10;14.80;99.90
48454;DHT22;34261;55.678;12.464;2022-07-29T00:08:35;14.80;99.90
48454;DHT22;34261;55.678;12.464;2022-07-29T00:11:01;14.90;99.90
48454;DHT22;34261;55.678;12.464;2022-07-29T00:13:26;14.80;99.90
48454;DHT22;34261;55.678;12.464;2022-07-29T00:15:52;14.80;99.90
48454;DHT22;34261;55.678;12.464;2022-07-29T00:18:18;14.80;99.90
48454;DHT22;34261;55.678;12.464;2022-07-29T00:20:43;14.70;99.90
48454;DHT22;34261;55.678;12.464;2022-07-29T00:23:09;14.70;99.90
48454;DHT22;34261;55.678;12.464;2022-07-29T00:25:34;14.60;99.90
48454;DHT22;34261;55.678;12.464;2022-07-29T00:28:00;14.70;99.90
48454;DHT22;34261;55.678;12.464;2022-07-29T00:30:25;14.70;99.90
48454;DHT22;34261;55.678;12.464;2022-07-29T00:32:51;14.60;99.90
48454;DHT22;34261;55.678;12.464;2022-07-29T00:35:17;14.60;99.90
48454;DHT22;34261;55.678;12.464;2022-07-29T00:38:01;14.50;99.90
48454;DHT22;34261;55.678;12.464;2022-07-29T00:40:26;14.50;99.90
48454;DHT22;34261;55.678;12.464;2022-07-29T00:42:52;14.50;99.90
48454;DHT22;34261;55.678;12.464;2022-07-29T00:45:19;14.50;99.90
48454;DHT22;34261;55.678;12.464;2022-07-29T00:47:45;14.40;99.90
48454;DHT22;34261;55.678;12.464;2022-07-29T00:50:12;14.40;99.90
48454;DHT22;34261;55.678;12.464;2022-07-29T00:52:39;14.40;99.90
48454;DHT22;34261;55.678;12.464;2022-07-29T00:55:07;14.30;99.90
48454;DHT22;34261;55.678;12.464;2022-07-29T00:57:34;14.30;99.90
48454;DHT22;34261;55.678;12.464;2022-07-29T01:00:00;14.30;99.90
48454;DHT22;34261;55.678;12.464;2022-07-29T01:02:26;14.30;99.90
48454;DHT22;34261;55.678;12.464;2022-07-29T01:04:52;14.30;99.90
48454;DHT22;34261;55.678;12.464;2022-07-29T01:07:18;14.30;99.90
48454;DHT22;34261;55.678;12.464;2022-07-29T01:09:45;14.30;99.90
48454;DHT22;34261;55.678;12.464;2022-07-29T01:12:23;14.20;99.90
48454;DHT22;34261;55.678;12.464;2022-07-29T01:14:50;14.20;99.90
48454;DHT22;34261;55.678;12.464;2022-07-29T01:17:41;14.20;99.90
48454;DHT22;34261;55.678;12.464;2022-07-29T01:28:46;14.10;99.90
48454;DHT22;34261;55.678;12.464;2022-07-29T01:31:18;14.20;99.90
48454;DHT22;34261;55.678;12.464;2022-07-29T01:33:45;14.20;99.90
48454;DHT22;34261;55.678;12.464;2022-07-29T01:36:37;14.10;99.90
48454;DHT22;34261;55.678;12.464;2022-07-29T01:39:19;14.10;99.90
48454;DHT22;34261;55.678;12.464;2022-07-29T01:41:59;14.00;99.90
48454;DHT22;34261;55.678;12.464;2022-07-29T01:47:31;14.00;99.90
48454;DHT22;34261;55.678;12.464;2022-07-29T01:49:59;14.00;99.90
48454;DHT22;34261;55.678;12.464;2022-07-29T01:52:37;14.00;99.90
48454;DHT22;34261;55.678;12.464;2022-07-29T01:55:10;14.00;99.90
48454;DHT22;34261;55.678;12.464;2022-07-29T01:57:38;14.00;99.90
48454;DHT22;34261;55.678;12.464;2022-07-29T02:00:05;14.00;99.90
48454;DHT22;34261;55.678;12.464;2022-07-29T02:02:32;13.90;99.90
48454;DHT22;34261;55.678;12.464;2022-07-29T02:05:01;14.00;99.90
48454;DHT22;34261;55.678;12.464;2022-07-29T02:07:29;14.00;99.90
48454;DHT22;34261;55.678;12.464;2022-07-29T02:09:57;14.00;99.90
48454;DHT22;34261;55.678;12.464;2022-07-29T02:12:25;14.00;99.90
48454;DHT22;34261;55.678;12.464;2022-07-29T02:14:53;14.00;99.90
48454;DHT22;34261;55.678;12.464;2022-07-29T02:17:33;13.90;99.90
48454;DHT22;34261;55.678;12.464;2022-07-29T02:20:03;13.90;99.90
48454;DHT22;34261;55.678;12.464;2022-07-29T02:22:31;13.90;99.90
48454;DHT22;34261;55.678;12.464;2022-07-29T02:25:00;13.80;99.90
48454;DHT22;34261;55.678;12.464;2022-07-29T02:27:26;13.90;99.90
48454;DHT22;34261;55.678;12.464;2022-07-29T02:29:54;13.90;99.90
48454;DHT22;34261;55.678;12.464;2022-07-29T02:32:22;13.80;99.90
48454;DHT22;34261;55.678;12.464;2022-07-29T02:34:50;13.80;99.90
48454;DHT22;34261;55.678;12.464;2022-07-29T02:37:18;13.70;99.90
48454;DHT22;34261;55.678;12.464;2022-07-29T02:39:45;13.70;99.90
48454;DHT22;34261;55.678;12.464;2022-07-29T02:42:14;13.80;99.90
48454;DHT22;34261;55.678;12.464;2022-07-29T02:44:41;13.80;99.90
48454;DHT22;34261;55.678;12.464;2022-07-29T02:47:18;13.70;99.90
48454;DHT22;34261;55.678;12.464;2022-07-29T02:50:11;13.70;99.90
48454;DHT22;34261;55.678;12.464;2022-07-29T02:52:41;13.70;99.90
48454;DHT22;34261;55.678;12.464;2022-07-29T02:55:18;13.70;99.90
48454;DHT22;34261;55.678;12.464;2022-07-29T02:57:49;13.60;99.90
48454;DHT22;34261;55.678;12.464;2022-07-29T03:00:17;13.60;99.90
48454;DHT22;34261;55.678;12.464;2022-07-29T03:02:45;13.60;99.90
48454;DHT22;34261;55.678;12.464;2022-07-29T03:05:19;13.60;99.90
48454;DHT22;34261;55.678;12.464;2022-07-29T03:07:48;13.60;99.90
48454;DHT22;34261;55.678;12.464;2022-07-29T03:10:16;13.60;99.90
48454;DHT22;34261;55.678;12.464;2022-07-29T03:12:42;13.60;99.90
48454;DHT22;34261;55.678;12.464;2022-07-29T03:15:08;13.50;99.90
48454;DHT22;34261;55.678;12.464;2022-07-29T03:17:35;13.50;99.90
48454;DHT22;34261;55.678;12.464;2022-07-29T03:20:02;13.50;99.90
48454;DHT22;34261;55.678;12.464;2022-07-29T03:22:28;13.50;99.90
48454;DHT22;34261;55.678;12.464;2022-07-29T03:24:54;13.50;99.90
48454;DHT22;34261;55.678;12.464;2022-07-29T03:27:20;13.50;99.90
48454;DHT22;34261;55.678;12.464;2022-07-29T03:29:46;13.50;99.90
48454;DHT22;34261;55.678;12.464;2022-07-29T03:32:11;13.50;99.90
48454;DHT22;34261;55.678;12.464;2022-07-29T03:34:37;13.50;99.90
48454;DHT22;34261;55.678;12.464;2022-07-29T03:37:04;13.50;99.90
48454;DHT22;34261;55.678;12.464;2022-07-29T03:39:35;13.50;99.90
48454;DHT22;34261;55.678;12.464;2022-07-29T03:42:02;13.50;99.90
48454;DHT22;34261;55.678;12.464;2022-07-29T03:44:29;13.40;99.90
48454;DHT22;34261;55.678;12.464;2022-07-29T03:46:58;13.50;99.90
48454;DHT22;34261;55.678;12.464;2022-07-29T03:49:27;13.50;99.90
48454;DHT22;34261;55.678;12.464;2022-07-29T03:51:55;13.50;99.90
48454;DHT22;34261;55.678;12.464;2022-07-29T03:54:22;13.50;99.90
48454;DHT22;34261;55.678;12.464;2022-07-29T03:56:50;13.60;99.90
48454;DHT22;34261;55.678;12.464;2022-07-29T03:59:18;13.70;99.90
48454;DHT22;34261;55.678;12.464;2022-07-29T04:01:55;13.70;99.90
48454;DHT22;34261;55.678;12.464;2022-07-29T04:04:21;13.70;99.90
48454;DHT22;34261;55.678;12.464;2022-07-29T04:06:51;13.80;99.90
48454;DHT22;34261;55.678;12.464;2022-07-29T04:09:18;13.80;99.90
48454;DHT22;34261;55.678;12.464;2022-07-29T04:11:46;13.90;99.90
48454;DHT22;34261;55.678;12.464;2022-07-29T04:14:11;14.00;99.90
48454;DHT22;34261;55.678;12.464;2022-07-29T04:16:37;14.00;99.90
48454;DHT22;34261;55.678;12.464;2022-07-29T04:19:03;14.10;99.90
48454;DHT22;34261;55.678;12.464;2022-07-29T04:21:28;14.10;99.90
48454;DHT22;34261;55.678;12.464;2022-07-29T04:23:54;14.20;99.90
48454;DHT22;34261;55.678;12.464;2022-07-29T04:26:20;14.20;99.90
48454;DHT22;34261;55.678;12.464;2022-07-29T04:28:46;14.40;99.90
48454;DHT22;34261;55.678;12.464;2022-07-29T04:31:13;14.40;99.90
48454;DHT22;34261;55.678;12.464;2022-07-29T04:33:39;14.50;99.90
48454;DHT22;34261;55.678;12.464;2022-07-29T04:36:05;14.60;99.90
48454;DHT22;34261;55.678;12.464;2022-07-29T04:38:31;14.60;99.90
48454;DHT22;34261;55.678;12.464;2022-07-29T04:40:56;14.70;99.90
48454;DHT22;34261;55.678;12.464;2022-07-29T04:43:22;14.80;99.90
48454;DHT22;34261;55.678;12.464;2022-07-29T04:45:48;15.00;99.90
48454;DHT22;34261;55.678;12.464;2022-07-29T04:48:13;15.10;99.90
48454;DHT22;34261;55.678;12.464;2022-07-29T04:50:39;15.20;99.90
48454;DHT22;34261;55.678;12.464;2022-07-29T04:53:06;15.30;99.90
48454;DHT22;34261;55.678;12.464;2022-07-29T04:55:32;15.40;99.90
48454;DHT22;34261;55.678;12.464;2022-07-29T04:57:57;15.50;99.90
48454;DHT22;34261;55.678;12.464;2022-07-29T05:00:23;15.60;99.90
48454;DHT22;34261;55.678;12.464;2022-07-29T05:02:49;15.70;99.90
48454;DHT22;34261;55.678;12.464;2022-07-29T05:05:15;15.80;99.90
48454;DHT22;34261;55.678;12.464;2022-07-29T05:07:42;16.00;99.90
48454;DHT22;34261;55.678;12.464;2022-07-29T05:10:08;16.10;99.90
48454;DHT22;34261;55.678;12.464;2022-07-29T05:12:34;16.20;99.90
48454;DHT22;34261;55.678;12.464;2022-07-29T05:15:00;16.40;99.90
48454;DHT22;34261;55.678;12.464;2022-07-29T05:17:26;16.50;99.90
48454;DHT22;34261;55.678;12.464;2022-07-29T05:19:52;16.60;99.90
48454;DHT22;34261;55.678;12.464;2022-07-29T05:22:19;16.80;99.90
48454;DHT22;34261;55.678;12.464;2022-07-29T05:24:45;16.90;99.90
48454;DHT22;34261;55.678;12.464;2022-07-29T05:27:11;17.00;99.90
48454;DHT22;34261;55.678;12.464;2022-07-29T05:29:37;17.10;99.90
48454;DHT22;34261;55.678;12.464;2022-07-29T05:32:04;17.20;99.90
48454;DHT22;34261;55.678;12.464;2022-07-29T05:34:30;17.30;99.90
48454;DHT22;34261;55.678;12.464;2022-07-29T05:36:56;17.40;99.90
48454;DHT22;34261;55.678;12.464;2022-07-29T05:39:22;17.50;99.90
48454;DHT22;34261;55.678;12.464;2022-07-29T05:41:48;17.50;99.90
48454;DHT22;34261;55.678;12.464;2022-07-29T05:44:14;17.60;99.90
48454;DHT22;34261;55.678;12.464;2022-07-29T05:46:39;17.70;99.90
48454;DHT22;34261;55.678;12.464;2022-07-29T05:49:05;17.80;99.90
48454;DHT22;34261;55.678;12.464;2022-07-29T05:51:34;17.90;99.90
48454;DHT22;34261;55.678;12.464;2022-07-29T05:54:00;18.00;99.90
48454;DHT22;34261;55.678;12.464;2022-07-29T05:56:26;18.00;99.80
48454;DHT22;34261;55.678;12.464;2022-07-29T05:58:52;18.00;99.50
48454;DHT22;34261;55.678;12.464;2022-07-29T06:01:25;18.10;99.40
48454;DHT22;34261;55.678;12.464;2022-07-29T06:03:51;18.20;98.80
48454;DHT22;34261;55.678;12.464;2022-07-29T06:06:17;18.30;99.10
48454;DHT22;34261;55.678;12.464;2022-07-29T06:08:42;18.30;98.80
48454;DHT22;34261;55.678;12.464;2022-07-29T06:11:08;18.40;98.50
48454;DHT22;34261;55.678;12.464;2022-07-29T06:13:34;18.50;98.30
48454;DHT22;34261;55.678;12.464;2022-07-29T06:16:00;18.50;98.30
48454;DHT22;34261;55.678;12.464;2022-07-29T06:18:27;18.60;97.80
48454;DHT22;34261;55.678;12.464;2022-07-29T06:20:53;18.50;97.80
48454;DHT22;34261;55.678;12.464;2022-07-29T06:23:19;18.50;98.10
48454;DHT22;34261;55.678;12.464;2022-07-29T06:25:45;18.50;98.40
48454;DHT22;34261;55.678;12.464;2022-07-29T06:28:11;18.60;98.30
48454;DHT22;34261;55.678;12.464;2022-07-29T06:30:38;18.60;98.20
48454;DHT22;34261;55.678;12.464;2022-07-29T06:33:04;18.70;98.40
48454;DHT22;34261;55.678;12.464;2022-07-29T06:35:34;18.70;98.20
48454;DHT22;34261;55.678;12.464;2022-07-29T06:38:05;18.80;97.70
48454;DHT22;34261;55.678;12.464;2022-07-29T06:40:31;18.80;97.50
48454;DHT22;34261;55.678;12.464;2022-07-29T06:43:15;18.90;98.00
48454;DHT22;34261;55.678;12.464;2022-07-29T06:45:41;19.00;97.50
48454;DHT22;34261;55.678;12.464;2022-07-29T06:48:09;19.10;97.30
48454;DHT22;34261;55.678;12.464;2022-07-29T06:50:34;19.10;97.50
48454;DHT22;34261;55.678;12.464;2022-07-29T06:53:01;19.10;97.20
48454;DHT22;34261;55.678;12.464;2022-07-29T06:55:29;19.20;97.80
48454;DHT22;34261;55.678;12.464;2022-07-29T06:57:54;19.30;97.60
48454;DHT22;34261;55.678;12.464;2022-07-29T07:00:20;19.30;97.90
48454;DHT22;34261;55.678;12.464;2022-07-29T07:02:48;19.40;98.40
48454;DHT22;34261;55.678;12.464;2022-07-29T07:05:15;19.40;97.60
48454;DHT22;34261;55.678;12.464;2022-07-29T07:07:42;19.40;96.80
48454;DHT22;34261;55.678;12.464;2022-07-29T07:10:10;19.50;97.00
48454;DHT22;34261;55.678;12.464;2022-07-29T07:12:36;19.60;96.80
48454;DHT22;34261;55.678;12.464;2022-07-29T07:15:03;19.60;96.90
48454;DHT22;34261;55.678;12.464;2022-07-29T07:17:29;19.70;97.20
48454;DHT22;34261;55.678;12.464;2022-07-29T07:19:57;19.70;96.50
48454;DHT22;34261;55.678;12.464;2022-07-29T07:22:28;19.70;95.80
48454;DHT22;34261;55.678;12.464;2022-07-29T07:24:55;19.80;96.40
48454;DHT22;34261;55.678;12.464;2022-07-29T07:27:22;19.80;96.50
48454;DHT22;34261;55.678;12.464;2022-07-29T07:29:50;20.00;96.30
48454;DHT22;34261;55.678;12.464;2022-07-29T07:32:17;20.00;96.40
48454;DHT22;34261;55.678;12.464;2022-07-29T07:34:44;20.00;96.00
48454;DHT22;34261;55.678;12.464;2022-07-29T07:37:13;20.10;95.80
48454;DHT22;34261;55.678;12.464;2022-07-29T07:39:41;20.20;95.90
48454;DHT22;34261;55.678;12.464;2022-07-29T07:42:10;20.20;95.50
48454;DHT22;34261;55.678;12.464;2022-07-29T07:44:39;20.20;95.70
48454;DHT22;34261;55.678;12.464;2022-07-29T07:47:06;20.30;95.70
48454;DHT22;34261;55.678;12.464;2022-07-29T07:49:34;20.30;95.60
48454;DHT22;34261;55.678;12.464;2022-07-29T07:52:04;20.40;96.10
48454;DHT22;34261;55.678;12.464;2022-07-29T07:54:35;20.50;95.90
48454;DHT22;34261;55.678;12.464;2022-07-29T07:57:07;20.70;95.10
48454;DHT22;34261;55.678;12.464;2022-07-29T07:59:35;20.90;94.90
48454;DHT22;34261;55.678;12.464;2022-07-29T08:02:09;21.00;94.60
48454;DHT22;34261;55.678;12.464;2022-07-29T08:04:41;21.00;94.30
48454;DHT22;34261;55.678;12.464;2022-07-29T08:07:15;20.90;94.20
48454;DHT22;34261;55.678;12.464;2022-07-29T08:09:44;21.00;94.70
48454;DHT22;34261;55.678;12.464;2022-07-29T08:12:21;20.60;95.00
48454;DHT22;34261;55.678;12.464;2022-07-29T08:14:50;20.50;95.60
48454;DHT22;34261;55.678;12.464;2022-07-29T08:17:17;20.60;96.10
48454;DHT22;34261;55.678;12.464;2022-07-29T08:19:47;20.40;96.40
48454;DHT22;34261;55.678;12.464;2022-07-29T08:22:15;20.50;96.50
48454;DHT22;34261;55.678;12.464;2022-07-29T08:24:43;20.60;97.00
48454;DHT22;34261;55.678;12.464;2022-07-29T08:27:18;20.70;97.00
48454;DHT22;34261;55.678;12.464;2022-07-29T08:29:59;20.80;96.90
48454;DHT22;34261;55.678;12.464;2022-07-29T08:32:31;20.90;97.00
48454;DHT22;34261;55.678;12.464;2022-07-29T08:34:58;20.70;96.60
48454;DHT22;34261;55.678;12.464;2022-07-29T08:37:27;20.50;96.80
48454;DHT22;34261;55.678;12.464;2022-07-29T08:39:59;20.60;97.10
48454;DHT22;34261;55.678;12.464;2022-07-29T08:42:27;20.80;97.10
48454;DHT22;34261;55.678;12.464;2022-07-29T08:45:00;20.70;96.10
48454;DHT22;34261;55.678;12.464;2022-07-29T08:47:51;20.90;96.40
48454;DHT22;34261;55.678;12.464;2022-07-29T09:01:59;21.60;94.80
48454;DHT22;34261;55.678;12.464;2022-07-29T09:04:35;21.90;94.40
48454;DHT22;34261;55.678;12.464;2022-07-29T09:07:15;22.00;92.70
48454;DHT22;34261;55.678;12.464;2022-07-29T09:10:14;22.20;92.60
48454;DHT22;34261;55.678;12.464;2022-07-29T09:12:51;22.40;92.00
48454;DHT22;34261;55.678;12.464;2022-07-29T09:16:48;22.60;91.30
48454;DHT22;34261;55.678;12.464;2022-07-29T09:24:06;22.80;92.30
48454;DHT22;34261;55.678;12.464;2022-07-29T09:27:31;23.00;91.70
48454;DHT22;34261;55.678;12.464;2022-07-29T10:08:49;22.10;92.80
48454;DHT22;34261;55.678;12.464;2022-07-29T12:26:26;27.50;80.20
48454;DHT22;34261;55.678;12.464;2022-07-29T12:28:56;28.10;79.70
48454;DHT22;34261;55.678;12.464;2022-07-29T12:31:23;28.00;78.50
48454;DHT22;34261;55.678;12.464;2022-07-29T12:33:57;27.80;78.50
48454;DHT22;34261;55.678;12.464;2022-07-29T12:36:23;28.10;79.40
48454;DHT22;34261;55.678;12.464;2022-07-29T12:38:49;28.60;77.70
48454;DHT22;34261;55.678;12.464;2022-07-29T12:41:18;28.20;78.10
48454;DHT22;34261;55.678;12.464;2022-07-29T12:43:55;28.20;79.40
48454;DHT22;34261;55.678;12.464;2022-07-29T12:46:21;28.10;77.20
48454;DHT22;34261;55.678;12.464;2022-07-29T12:48:51;28.40;79.40
48454;DHT22;34261;55.678;12.464;2022-07-29T12:51:31;28.60;79.40
48454;DHT22;34261;55.678;12.464;2022-07-29T12:54:07;28.70;78.00
48454;DHT22;34261;55.678;12.464;2022-07-29T12:56:37;29.00;77.90
48454;DHT22;34261;55.678;12.464;2022-07-29T12:59:21;28.80;76.30
48454;DHT22;34261;55.678;12.464;2022-07-29T13:01:51;29.00;78.40
48454;DHT22;34261;55.678;12.464;2022-07-29T13:04:32;29.20;77.60
48454;DHT22;34261;55.678;12.464;2022-07-29T13:07:07;28.80;78.10
48454;DHT22;34261;55.678;12.464;2022-07-29T13:09:44;28.30;77.40
48454;DHT22;34261;55.678;12.464;2022-07-29T13:12:14;28.60;79.20
48454;DHT22;34261;55.678;12.464;2022-07-29T13:14:49;28.70;77.50
48454;DHT22;34261;55.678;12.464;2022-07-29T13:17:25;28.40;78.50
48454;DHT22;34261;55.678;12.464;2022-07-29T13:20:17;28.40;78.30
48454;DHT22;34261;55.678;12.464;2022-07-29T13:22:52;28.60;78.30
48454;DHT22;34261;55.678;12.464;2022-07-29T13:25:30;28.50;78.80
48454;DHT22;34261;55.678;12.464;2022-07-29T13:28:16;28.20;79.90
48454;DHT22;34261;55.678;12.464;2022-07-29T13:30:53;27.80;79.60
48454;DHT22;34261;55.678;12.464;2022-07-29T13:36:54;28.50;81.30
48454;DHT22;34261;55.678;12.464;2022-07-29T13:39:28;28.80;79.60
48454;DHT22;34261;55.678;12.464;2022-07-29T13:42:22;28.70;79.00
48454;DHT22;34261;55.678;12.464;2022-07-29T13:45:17;28.50;79.80
48454;DHT22;34261;55.678;12.464;2022-07-29T13:48:25;28.70;75.40
48454;DHT22;34261;55.678;12.464;2022-07-29T13:50:58;28.70;72.60
48454;DHT22;34261;55.678;12.464;2022-07-29T13:53:56;28.70;72.40
48454;DHT22;34261;55.678;12.464;2022-07-29T13:56:51;28.70;70.60
48454;DHT22;34261;55.678;12.464;2022-07-29T13:59:22;28.50;69.50
48454;DHT22;34261;55.678;12.464;2022-07-29T14:08:37;28.70;66.80
48454;DHT22;34261;55.678;12.464;2022-07-29T14:11:19;29.10;68.40
48454;DHT22;34261;55.678;12.464;2022-07-29T14:13:45;29.00;70.00
48454;DHT22;34261;55.678;12.464;2022-07-29T14:16:16;29.30;70.20
48454;DHT22;34261;55.678;12.464;2022-07-29T14:18:48;29.50;70.30
48454;DHT22;34261;55.678;12.464;2022-07-29T14:21:18;29.20;69.00
48454;DHT22;34261;55.678;12.464;2022-07-29T14:23:50;29.40;69.80
48454;DHT22;34261;55.678;12.464;2022-07-29T14:26:51;29.80;70.00
48454;DHT22;34261;55.678;12.464;2022-07-29T14:29:37;29.80;67.80
48454;DHT22;34261;55.678;12.464;2022-07-29T14:32:12;29.70;68.50
48454;DHT22;34261;55.678;12.464;2022-07-29T14:34:58;29.40;68.80
48454;DHT22;34261;55.678;12.464;2022-07-29T14:37:41;29.10;69.90
48454;DHT22;34261;55.678;12.464;2022-07-29T14:40:11;29.20;69.00
48454;DHT22;34261;55.678;12.464;2022-07-29T14:42:38;29.20;71.20
48454;DHT22;34261;55.678;12.464;2022-07-29T14:45:32;29.10;71.60
48454;DHT22;34261;55.678;12.464;2022-07-29T14:48:10;29.20;73.40
48454;DHT22;34261;55.678;12.464;2022-07-29T14:51:11;29.40;71.00
48454;DHT22;34261;55.678;12.464;2022-07-29T14:54:04;29.60;72.10
48454;DHT22;34261;55.678;12.464;2022-07-29T14:56:34;29.40;71.00
48454;DHT22;34261;55.678;12.464;2022-07-29T14:59:07;28.80;74.70
48454;DHT22;34261;55.678;12.464;2022-07-29T15:02:07;29.00;74.00
48454;DHT22;34261;55.678;12.464;2022-07-29T15:04:34;29.10;72.00
48454;DHT22;34261;55.678;12.464;2022-07-29T15:07:08;29.00;71.10
48454;DHT22;34261;55.678;12.464;2022-07-29T15:10:01;28.70;72.30
48454;DHT22;34261;55.678;12.464;2022-07-29T15:12:27;28.40;73.10
48454;DHT22;34261;55.678;12.464;2022-07-29T15:15:18;28.20;74.00
48454;DHT22;34261;55.678;12.464;2022-07-29T15:18:13;28.10;74.40
48454;DHT22;34261;55.678;12.464;2022-07-29T15:27:48;28.00;76.00
48454;DHT22;34261;55.678;12.464;2022-07-29T15:30:31;28.00;74.50
48454;DHT22;34261;55.678;12.464;2022-07-29T15:33:14;28.20;75.40
48454;DHT22;34261;55.678;12.464;2022-07-29T15:36:51;27.80;74.10
48454;DHT22;34261;55.678;12.464;2022-07-29T15:39:51;27.50;74.50
48454;DHT22;34261;55.678;12.464;2022-07-29T15:42:27;27.40;76.40
48454;DHT22;34261;55.678;12.464;2022-07-29T15:45:56;27.50;76.30
48454;DHT22;34261;55.678;12.464;2022-07-29T15:48:50;27.30;75.80
48454;DHT22;34261;55.678;12.464;2022-07-29T15:51:16;27.00;76.20
48454;DHT22;34261;55.678;12.464;2022-07-29T15:54:49;26.70;75.20
48454;DHT22;34261;55.678;12.464;2022-07-29T15:57:39;26.30;74.60
48454;DHT22;34261;55.678;12.464;2022-07-29T16:00:47;26.10;75.10
48454;DHT22;34261;55.678;12.464;2022-07-29T16:57:10;24.40;77.10
48454;DHT22;34261;55.678;12.464;2022-07-29T18:59:08;20.90;93.70
48454;DHT22;34261;55.678;12.464;2022-07-29T19:01:41;20.80;93.70
48454;DHT22;34261;55.678;12.464;2022-07-29T19:04:17;20.80;93.80
48454;DHT22;34261;55.678;12.464;2022-07-29T19:06:48;20.70;93.90
48454;DHT22;34261;55.678;12.464;2022-07-29T19:09:17;20.60;94.10
48454;DHT22;34261;55.678;12.464;2022-07-29T19:11:45;20.60;94.10
48454;DHT22;34261;55.678;12.464;2022-07-29T19:14:14;20.60;94.20
48454;DHT22;34261;55.678;12.464;2022-07-29T19:16:45;20.50;94.20
48454;DHT22;34261;55.678;12.464;2022-07-29T19:19:43;20.40;94.40
48454;DHT22;34261;55.678;12.464;2022-07-29T19:22:15;20.40;94.40
48454;DHT22;34261;55.678;12.464;2022-07-29T19:24:47;20.40;94.50
48454;DHT22;34261;55.678;12.464;2022-07-29T19:27:16;20.40;94.50
48454;DHT22;34261;55.678;12.464;2022-07-29T19:29:44;20.40;94.60
48454;DHT22;34261;55.678;12.464;2022-07-29T19:32:17;20.30;94.70
48454;DHT22;34261;55.678;12.464;2022-07-29T19:34:53;20.30;94.80
48454;DHT22;34261;55.678;12.464;2022-07-29T19:37:39;20.30;94.80
48454;DHT22;34261;55.678;12.464;2022-07-29T19:40:07;20.20;94.90
48454;DHT22;34261;55.678;12.464;2022-07-29T19:42:39;20.10;94.80
48454;DHT22;34261;55.678;12.464;2022-07-29T19:45:06;20.10;95.10
48454;DHT22;34261;55.678;12.464;2022-07-29T19:47:33;20.00;95.20
48454;DHT22;34261;55.678;12.464;2022-07-29T19:50:00;20.00;95.30
48454;DHT22;34261;55.678;12.464;2022-07-29T19:52:30;19.90;95.30
48454;DHT22;34261;55.678;12.464;2022-07-29T19:54:57;19.90;95.40
48454;DHT22;34261;55.678;12.464;2022-07-29T19:57:26;19.80;95.40
48454;DHT22;34261;55.678;12.464;2022-07-29T19:59:53;19.80;95.50
48454;DHT22;34261;55.678;12.464;2022-07-29T20:02:24;19.70;95.70
48454;DHT22;34261;55.678;12.464;2022-07-29T20:04:51;19.70;95.50
48454;DHT22;34261;55.678;12.464;2022-07-29T20:07:20;19.70;95.50
48454;DHT22;34261;55.678;12.464;2022-07-29T20:09:47;19.60;95.70
48454;DHT22;34261;55.678;12.464;2022-07-29T20:12:17;19.60;95.70
48454;DHT22;34261;55.678;12.464;2022-07-29T20:14:45;19.60;95.80
48454;DHT22;34261;55.678;12.464;2022-07-29T20:17:16;19.50;95.90
48454;DHT22;34261;55.678;12.464;2022-07-29T20:19:47;19.50;96.00
48454;DHT22;34261;55.678;12.464;2022-07-29T21:19:28;18.90;96.60
48454;DHT22;34261;55.678;12.464;2022-07-29T21:21:53;18.90;96.70
48454;DHT22;34261;55.678;12.464;2022-07-29T21:24:19;18.90;96.60
48454;DHT22;34261;55.678;12.464;2022-07-29T21:26:45;18.90;96.50
48454;DHT22;34261;55.678;12.464;2022-07-29T21:29:11;18.90;96.60
48454;DHT22;34261;55.678;12.464;2022-07-29T21:31:37;18.90;96.60
48454;DHT22;34261;55.678;12.464;2022-07-29T21:34:05;18.90;96.60
48454;DHT22;34261;55.678;12.464;2022-07-29T21:36:31;18.80;96.70
48454;DHT22;34261;55.678;12.464;2022-07-29T21:38:57;18.90;96.80
48454;DHT22;34261;55.678;12.464;2022-07-29T21:41:24;18.80;96.80
48454;DHT22;34261;55.678;12.464;2022-07-29T21:43:51;18.80;97.00
48454;DHT22;34261;55.678;12.464;2022-07-29T21:46:17;18.80;97.20
48454;DHT22;34261;55.678;12.464;2022-07-29T21:48:42;18.80;97.70
48454;DHT22;34261;55.678;12.464;2022-07-29T21:51:08;18.70;98.20
48454;DHT22;34261;55.678;12.464;2022-07-29T21:53:34;18.70;98.70
48454;DHT22;34261;55.678;12.464;2022-07-29T21:56:01;18.70;99.20
48454;DHT22;34261;55.678;12.464;2022-07-29T21:58:27;18.60;99.70
48454;DHT22;34261;55.678;12.464;2022-07-29T22:00:52;18.60;99.90
48454;DHT22;34261;55.678;12.464;2022-07-29T22:03:19;18.60;99.90
48454;DHT22;34261;55.678;12.464;2022-07-29T22:05:45;18.60;99.90
48454;DHT22;34261;55.678;12.464;2022-07-29T22:08:11;18.60;99.90
48454;DHT22;34261;55.678;12.464;2022-07-29T22:10:37;18.50;99.90
48454;DHT22;34261;55.678;12.464;2022-07-29T22:13:03;18.50;99.90
48454;DHT22;34261;55.678;12.464;2022-07-29T22:15:29;18.50;99.90
48454;DHT22;34261;55.678;12.464;2022-07-29T22:17:56;18.50;99.90
48454;DHT22;34261;55.678;12.464;2022-07-29T22:20:22;18.50;99.90
48454;DHT22;34261;55.678;12.464;2022-07-29T22:22:48;18.50;99.90
48454;DHT22;34261;55.678;12.464;2022-07-29T22:25:14;18.40;99.90
48454;DHT22;34261;55.678;12.464;2022-07-29T22:27:40;18.40;99.90
48454;DHT22;34261;55.678;12.464;2022-07-29T22:30:06;18.50;99.90
48454;DHT22;34261;55.678;12.464;2022-07-29T22:32:32;18.40;99.90
48454;DHT22;34261;55.678;12.464;2022-07-29T22:34:58;18.40;99.90
48454;DHT22;34261;55.678;12.464;2022-07-29T22:37:24;18.40;99.90
48454;DHT22;34261;55.678;12.464;2022-07-29T22:39:50;18.40;99.90
48454;DHT22;34261;55.678;12.464;2022-07-29T22:42:16;18.40;99.90
48454;DHT22;34261;55.678;12.464;2022-07-29T22:44:41;18.40;99.90
48454;DHT22;34261;55.678;12.464;2022-07-29T22:47:07;18.40;99.90
48454;DHT22;34261;55.678;12.464;2022-07-29T22:49:33;18.40;99.90
48454;DHT22;34261;55.678;12.464;2022-07-29T22:51:58;18.40;99.90
48454;DHT22;34261;55.678;12.464;2022-07-29T22:54:25;18.30;99.90
48454;DHT22;34261;55.678;12.464;2022-07-29T22:56:51;18.30;99.90
48454;DHT22;34261;55.678;12.464;2022-07-29T22:59:16;18.30;99.90
48454;DHT22;34261;55.678;12.464;2022-07-29T23:01:42;18.20;99.90
48454;DHT22;34261;55.678;12.464;2022-07-29T23:04:08;18.20;99.90
48454;DHT22;34261;55.678;12.464;2022-07-29T23:06:34;18.20;99.90
48454;DHT22;34261;55.678;12.464;2022-07-29T23:09:00;18.20;99.90
48454;DHT22;34261;55.678;12.464;2022-07-29T23:11:25;18.10;99.90